sensor_id;sensor_type;location;lat;lon;timestamp;temperature;humidity
26408;DHT22;14583;43.604;1.364;2024-01-15T00:00:33;8.80;99.90
26408;DHT22;14583;43.604;1.364;2024-01-15T00:02:58;8.80;99.90
26408;DHT22;14583;43.604;1.364;2024-01-15T00:05:24;8.80;99.90
26408;DHT22;14583;43.604;1.364;2024-01-15T00:07:50;8.80;99.90
26408;DHT22;14583;43.604;1.364;2024-01-15T00:10:24;8.90;99.90
26408;DHT22;14583;43.604;1.364;2024-01-15T00:12:50;8.90;99.90
26408;DHT22;14583;43.604;1.364;2024-01-15T00:15:16;8.90;99.90
26408;DHT22;14583;43.604;1.364;2024-01-15T00:17:42;8.90;99.90
26408;DHT22;14583;43.604;1.364;2024-01-15T00:20:08;8.90;99.90
26408;DHT22;14583;43.604;1.364;2024-01-15T00:22:34;8.90;99.90
26408;DHT22;14583;43.604;1.364;2024-01-15T00:25:01;8.90;99.90
26408;DHT22;14583;43.604;1.364;2024-01-15T00:27:27;8.90;99.90
26408;DHT22;14583;43.604;1.364;2024-01-15T00:29:53;8.90;99.90
26408;DHT22;14583;43.604;1.364;2024-01-15T00:32:20;9.00;99.90
26408;DHT22;14583;43.604;1.364;2024-01-15T00:34:45;9.00;99.90
26408;DHT22;14583;43.604;1.364;2024-01-15T00:37:11;9.00;99.90
26408;DHT22;14583;43.604;1.364;2024-01-15T00:39:43;9.00;99.90
26408;DHT22;14583;43.604;1.364;2024-01-15T00:42:12;9.00;99.90
26408;DHT22;14583;43.604;1.364;2024-01-15T00:44:38;8.90;99.90
26408;DHT22;14583;43.604;1.364;2024-01-15T00:47:04;8.90;99.90
26408;DHT22;14583;43.604;1.364;2024-01-15T00:49:29;8.90;99.90
26408;DHT22;14583;43.604;1.364;2024-01-15T00:51:55;8.90;99.90
26408;DHT22;14583;43.604;1.364;2024-01-15T00:54:21;8.90;99.90
26408;DHT22;14583;43.604;1.364;2024-01-15T00:56:46;8.90;99.90
26408;DHT22;14583;43.604;1.364;2024-01-15T00:59:12;8.90;99.90
26408;DHT22;14583;43.604;1.364;2024-01-15T01:01:41;8.90;99.90
26408;DHT22;14583;43.604;1.364;2024-01-15T01:04:09;8.90;99.90
26408;DHT22;14583;43.604;1.364;2024-01-15T01:06:35;9.00;99.90
26408;DHT22;14583;43.604;1.364;2024-01-15T01:09:01;9.00;99.90
26408;DHT22;14583;43.604;1.364;2024-01-15T01:11:27;9.00;99.90
26408;DHT22;14583;43.604;1.364;2024-01-15T01:13:52;9.00;99.90
26408;DHT22;14583;43.604;1.364;2024-01-15T01:16:18;9.10;99.90
26408;DHT22;14583;43.604;1.364;2024-01-15T01:18:44;9.10;99.90
26408;DHT22;14583;43.604;1.364;2024-01-15T01:21:09;9.00;99.90
26408;DHT22;14583;43.604;1.364;2024-01-15T01:23:35;9.00;99.90
26408;DHT22;14583;43.604;1.364;2024-01-15T01:26:01;9.00;99.90
26408;DHT22;14583;43.604;1.364;2024-01-15T01:28:27;8.90;99.90
26408;DHT22;14583;43.604;1.364;2024-01-15T01:30:53;8.90;99.90
26408;DHT22;14583;43.604;1.364;2024-01-15T01:33:18;9.00;99.90
26408;DHT22;14583;43.604;1.364;2024-01-15T01:35:44;8.90;99.90
26408;DHT22;14583;43.604;1.364;2024-01-15T01:38:10;8.90;99.90
26408;DHT22;14583;43.604;1.364;2024-01-15T01:40:36;8.90;99.90
26408;DHT22;14583;43.604;1.364;2024-01-15T01:43:04;8.90;99.90
26408;DHT22;14583;43.604;1.364;2024-01-15T01:45:29;8.90;99.90
26408;DHT22;14583;43.604;1.364;2024-01-15T01:47:55;8.90;99.90
26408;DHT22;14583;43.604;1.364;2024-01-15T01:50:21;8.90;99.90
26408;DHT22;14583;43.604;1.364;2024-01-15T01:52:48;8.90;99.90
26408;DHT22;14583;43.604;1.364;2024-01-15T01:55:14;8.90;99.90
26408;DHT22;14583;43.604;1.364;2024-01-15T01:57:40;8.90;99.90
26408;DHT22;14583;43.604;1.364;2024-01-15T02:00:07;9.00;99.90
26408;DHT22;14583;43.604;1.364;2024-01-15T02:02:34;9.00;99.90
26408;DHT22;14583;43.604;1.364;2024-01-15T02:04:59;8.90;99.90
26408;DHT22;14583;43.604;1.364;2024-01-15T02:07:25;8.90;99.90
26408;DHT22;14583;43.604;1.364;2024-01-15T02:09:51;8.90;99.90
26408;DHT22;14583;43.604;1.364;2024-01-15T02:12:17;8.90;99.90
26408;DHT22;14583;43.604;1.364;2024-01-15T02:14:42;8.90;99.90
26408;DHT22;14583;43.604;1.364;2024-01-15T02:17:08;8.90;99.90
26408;DHT22;14583;43.604;1.364;2024-01-15T02:19:34;8.90;99.90
26408;DHT22;14583;43.604;1.364;2024-01-15T02:22:00;9.00;99.90
26408;DHT22;14583;43.604;1.364;2024-01-15T02:24:28;9.00;99.90
26408;DHT22;14583;43.604;1.364;2024-01-15T02:26:54;9.00;99.90
26408;DHT22;14583;43.604;1.364;2024-01-15T02:29:20;9.00;99.90
26408;DHT22;14583;43.604;1.364;2024-01-15T02:31:46;9.00;99.90
26408;DHT22;14583;43.604;1.364;2024-01-15T02:34:11;9.00;99.90
26408;DHT22;14583;43.604;1.364;2024-01-15T02:36:37;9.00;99.90
26408;DHT22;14583;43.604;1.364;2024-01-15T02:39:02;8.90;99.90
26408;DHT22;14583;43.604;1.364;2024-01-15T02:41:28;9.00;99.90
26408;DHT22;14583;43.604;1.364;2024-01-15T02:43:54;8.90;99.90
26408;DHT22;14583;43.604;1.364;2024-01-15T02:46:20;8.90;99.90
26408;DHT22;14583;43.604;1.364;2024-01-15T02:48:46;8.90;99.90
26408;DHT22;14583;43.604;1.364;2024-01-15T02:51:11;9.00;99.90
26408;DHT22;14583;43.604;1.364;2024-01-15T02:53:37;9.00;99.90
26408;DHT22;14583;43.604;1.364;2024-01-15T02:56:03;9.00;99.90
26408;DHT22;14583;43.604;1.364;2024-01-15T02:58:29;9.00;99.90
26408;DHT22;14583;43.604;1.364;2024-01-15T03:00:55;9.00;99.90
26408;DHT22;14583;43.604;1.364;2024-01-15T03:03:21;9.00;99.90
26408;DHT22;14583;43.604;1.364;2024-01-15T03:05:46;9.00;99.90
26408;DHT22;14583;43.604;1.364;2024-01-15T03:08:12;9.00;99.90
26408;DHT22;14583;43.604;1.364;2024-01-15T03:10:38;8.90;99.90
26408;DHT22;14583;43.604;1.364;2024-01-15T03:13:04;9.00;99.90
26408;DHT22;14583;43.604;1.364;2024-01-15T03:15:29;9.00;99.90
26408;DHT22;14583;43.604;1.364;2024-01-15T03:17:55;9.00;99.90
26408;DHT22;14583;43.604;1.364;2024-01-15T03:20:21;9.00;99.90
26408;DHT22;14583;43.604;1.364;2024-01-15T03:22:46;9.00;99.90
26408;DHT22;14583;43.604;1.364;2024-01-15T03:25:12;9.00;99.90
26408;DHT22;14583;43.604;1.364;2024-01-15T03:27:38;9.00;99.90
26408;DHT22;14583;43.604;1.364;2024-01-15T03:30:04;9.00;99.90
26408;DHT22;14583;43.604;1.364;2024-01-15T03:32:29;9.00;99.90
26408;DHT22;14583;43.604;1.364;2024-01-15T03:34:55;9.00;99.90
26408;DHT22;14583;43.604;1.364;2024-01-15T03:37:21;9.00;99.90
26408;DHT22;14583;43.604;1.364;2024-01-15T03:39:47;9.00;99.90
26408;DHT22;14583;43.604;1.364;2024-01-15T03:42:15;9.10;99.90
26408;DHT22;14583;43.604;1.364;2024-01-15T03:44:41;9.00;99.90
26408;DHT22;14583;43.604;1.364;2024-01-15T03:47:07;9.00;99.90
26408;DHT22;14583;43.604;1.364;2024-01-15T03:49:32;9.00;99.90
26408;DHT22;14583;43.604;1.364;2024-01-15T03:51:58;9.00;99.90
26408;DHT22;14583;43.604;1.364;2024-01-15T03:54:24;9.00;99.90
26408;DHT22;14583;43.604;1.364;2024-01-15T03:56:49;9.00;99.90
26408;DHT22;14583;43.604;1.364;2024-01-15T03:59:15;9.00;99.90
26408;DHT22;14583;43.604;1.364;2024-01-15T04:01:41;9.00;99.90
26408;DHT22;14583;43.604;1.364;2024-01-15T04:04:06;9.00;99.90
26408;DHT22;14583;43.604;1.364;2024-01-15T04:06:32;8.90;99.90
26408;DHT22;14583;43.604;1.364;2024-01-15T04:08:59;9.00;99.90
26408;DHT22;14583;43.604;1.364;2024-01-15T04:11:25;8.90;99.90
26408;DHT22;14583;43.604;1.364;2024-01-15T04:13:51;8.90;99.90
26408;DHT22;14583;43.604;1.364;2024-01-15T04:16:16;9.00;99.90
26408;DHT22;14583;43.604;1.364;2024-01-15T04:18:42;9.00;99.90
26408;DHT22;14583;43.604;1.364;2024-01-15T04:21:08;9.00;99.90
26408;DHT22;14583;43.604;1.364;2024-01-15T04:23:33;9.00;99.90
26408;DHT22;14583;43.604;1.364;2024-01-15T04:25:59;9.00;99.90
26408;DHT22;14583;43.604;1.364;2024-01-15T04:28:25;9.00;99.90
26408;DHT22;14583;43.604;1.364;2024-01-15T04:30:50;9.00;99.90
26408;DHT22;14583;43.604;1.364;2024-01-15T04:33:16;9.00;99.90
26408;DHT22;14583;43.604;1.364;2024-01-15T04:35:42;9.00;99.90
26408;DHT22;14583;43.604;1.364;2024-01-15T04:38:07;9.00;99.90
26408;DHT22;14583;43.604;1.364;2024-01-15T04:40:33;9.00;99.90
26408;DHT22;14583;43.604;1.364;2024-01-15T04:42:59;9.00;99.90
26408;DHT22;14583;43.604;1.364;2024-01-15T04:45:24;9.10;99.90
26408;DHT22;14583;43.604;1.364;2024-01-15T04:47:54;9.10;99.90
26408;DHT22;14583;43.604;1.364;2024-01-15T04:50:21;9.10;99.90
26408;DHT22;14583;43.604;1.364;2024-01-15T04:52:47;9.10;99.90
26408;DHT22;14583;43.604;1.364;2024-01-15T04:55:13;9.10;99.90
26408;DHT22;14583;43.604;1.364;2024-01-15T04:57:39;9.10;99.90
26408;DHT22;14583;43.604;1.364;2024-01-15T05:00:05;9.00;99.90
26408;DHT22;14583;43.604;1.364;2024-01-15T05:02:31;9.10;99.90
26408;DHT22;14583;43.604;1.364;2024-01-15T05:04:56;9.10;99.90
26408;DHT22;14583;43.604;1.364;2024-01-15T05:07:22;9.10;99.90
26408;DHT22;14583;43.604;1.364;2024-01-15T05:09:48;9.10;99.90
26408;DHT22;14583;43.604;1.364;2024-01-15T05:12:13;9.00;99.90
26408;DHT22;14583;43.604;1.364;2024-01-15T05:14:39;9.10;99.90
26408;DHT22;14583;43.604;1.364;2024-01-15T05:17:05;9.10;99.90
26408;DHT22;14583;43.604;1.364;2024-01-15T05:19:31;9.10;99.90
26408;DHT22;14583;43.604;1.364;2024-01-15T05:21:56;9.10;99.90
26408;DHT22;14583;43.604;1.364;2024-01-15T05:24:22;9.10;99.90
26408;DHT22;14583;43.604;1.364;2024-01-15T05:26:48;9.00;99.90
26408;DHT22;14583;43.604;1.364;2024-01-15T05:29:14;9.10;99.90
26408;DHT22;14583;43.604;1.364;2024-01-15T05:31:40;9.00;99.90
26408;DHT22;14583;43.604;1.364;2024-01-15T05:34:05;9.00;99.90
26408;DHT22;14583;43.604;1.364;2024-01-15T05:36:31;9.00;99.90
26408;DHT22;14583;43.604;1.364;2024-01-15T05:38:56;9.00;99.90
26408;DHT22;14583;43.604;1.364;2024-01-15T05:41:22;9.00;99.90
26408;DHT22;14583;43.604;1.364;2024-01-15T05:43:48;9.00;99.90
26408;DHT22;14583;43.604;1.364;2024-01-15T05:46:14;9.00;99.90
26408;DHT22;14583;43.604;1.364;2024-01-15T05:48:40;9.00;99.90
26408;DHT22;14583;43.604;1.364;2024-01-15T05:51:06;9.00;99.90
26408;DHT22;14583;43.604;1.364;2024-01-15T05:53:32;9.00;99.90
26408;DHT22;14583;43.604;1.364;2024-01-15T05:55:58;9.00;99.90
26408;DHT22;14583;43.604;1.364;2024-01-15T05:58:23;9.00;99.90
26408;DHT22;14583;43.604;1.364;2024-01-15T06:00:49;9.10;99.90
26408;DHT22;14583;43.604;1.364;2024-01-15T06:03:15;9.10;99.90
26408;DHT22;14583;43.604;1.364;2024-01-15T06:05:41;9.10;99.90
26408;DHT22;14583;43.604;1.364;2024-01-15T06:08:07;9.10;99.90
26408;DHT22;14583;43.604;1.364;2024-01-15T06:10:32;9.10;99.90
26408;DHT22;14583;43.604;1.364;2024-01-15T06:12:58;9.10;99.90
26408;DHT22;14583;43.604;1.364;2024-01-15T06:15:24;9.10;99.90
26408;DHT22;14583;43.604;1.364;2024-01-15T06:17:50;9.10;99.90
26408;DHT22;14583;43.604;1.364;2024-01-15T06:20:16;9.20;99.90
26408;DHT22;14583;43.604;1.364;2024-01-15T06:22:42;9.20;99.90
26408;DHT22;14583;43.604;1.364;2024-01-15T06:25:08;9.10;99.90
26408;DHT22;14583;43.604;1.364;2024-01-15T06:27:34;9.20;99.90
26408;DHT22;14583;43.604;1.364;2024-01-15T06:30:00;9.20;99.90
26408;DHT22;14583;43.604;1.364;2024-01-15T06:32:25;9.20;99.90
26408;DHT22;14583;43.604;1.364;2024-01-15T06:34:51;9.20;99.90
26408;DHT22;14583;43.604;1.364;2024-01-15T06:37:17;9.20;99.90
26408;DHT22;14583;43.604;1.364;2024-01-15T06:39:45;9.10;99.90
26408;DHT22;14583;43.604;1.364;2024-01-15T06:42:11;9.10;99.90
26408;DHT22;14583;43.604;1.364;2024-01-15T06:44:37;9.10;99.90
26408;DHT22;14583;43.604;1.364;2024-01-15T06:47:03;9.10;99.90
26408;DHT22;14583;43.604;1.364;2024-01-15T06:49:29;9.00;99.90
26408;DHT22;14583;43.604;1.364;2024-01-15T06:51:55;9.10;99.90
26408;DHT22;14583;43.604;1.364;2024-01-15T06:54:21;9.10;99.90
26408;DHT22;14583;43.604;1.364;2024-01-15T06:56:47;9.10;99.90
26408;DHT22;14583;43.604;1.364;2024-01-15T06:59:12;9.20;99.90
26408;DHT22;14583;43.604;1.364;2024-01-15T07:01:38;9.10;99.90
26408;DHT22;14583;43.604;1.364;2024-01-15T07:04:04;9.10;99.90
26408;DHT22;14583;43.604;1.364;2024-01-15T07:06:30;9.10;99.90
26408;DHT22;14583;43.604;1.364;2024-01-15T07:08:56;9.10;99.90
26408;DHT22;14583;43.604;1.364;2024-01-15T07:11:46;9.10;99.90
26408;DHT22;14583;43.604;1.364;2024-01-15T07:14:15;9.10;99.90
26408;DHT22;14583;43.604;1.364;2024-01-15T07:16:40;9.10;99.90
26408;DHT22;14583;43.604;1.364;2024-01-15T07:19:06;9.10;99.90
26408;DHT22;14583;43.604;1.364;2024-01-15T07:21:32;9.20;99.90
26408;DHT22;14583;43.604;1.364;2024-01-15T07:23:58;9.20;99.90
26408;DHT22;14583;43.604;1.364;2024-01-15T07:26:24;9.20;99.90
26408;DHT22;14583;43.604;1.364;2024-01-15T07:28:50;9.20;99.90
26408;DHT22;14583;43.604;1.364;2024-01-15T07:31:17;9.20;99.90
26408;DHT22;14583;43.604;1.364;2024-01-15T07:33:43;9.20;99.90
26408;DHT22;14583;43.604;1.364;2024-01-15T07:36:09;9.20;99.90
26408;DHT22;14583;43.604;1.364;2024-01-15T07:38:35;9.20;99.90
26408;DHT22;14583;43.604;1.364;2024-01-15T07:41:01;9.20;99.90
26408;DHT22;14583;43.604;1.364;2024-01-15T07:43:27;9.20;99.90
26408;DHT22;14583;43.604;1.364;2024-01-15T07:45:53;9.20;99.90
26408;DHT22;14583;43.604;1.364;2024-01-15T07:48:19;9.20;99.90
26408;DHT22;14583;43.604;1.364;2024-01-15T07:50:45;9.20;99.90
26408;DHT22;14583;43.604;1.364;2024-01-15T07:53:11;9.30;99.90
26408;DHT22;14583;43.604;1.364;2024-01-15T07:55:37;9.30;99.90
26408;DHT22;14583;43.604;1.364;2024-01-15T07:58:03;9.30;99.90
26408;DHT22;14583;43.604;1.364;2024-01-15T08:00:29;9.30;99.90
26408;DHT22;14583;43.604;1.364;2024-01-15T08:02:55;9.30;99.90
26408;DHT22;14583;43.604;1.364;2024-01-15T08:05:20;9.30;99.90
26408;DHT22;14583;43.604;1.364;2024-01-15T08:07:47;9.30;99.90
26408;DHT22;14583;43.604;1.364;2024-01-15T08:10:12;9.30;99.90
26408;DHT22;14583;43.604;1.364;2024-01-15T08:12:39;9.30;99.90
26408;DHT22;14583;43.604;1.364;2024-01-15T08:15:05;9.30;99.90
26408;DHT22;14583;43.604;1.364;2024-01-15T08:17:34;9.30;99.90
26408;DHT22;14583;43.604;1.364;2024-01-15T08:19:59;9.30;99.90
26408;DHT22;14583;43.604;1.364;2024-01-15T08:22:26;9.40;99.90
26408;DHT22;14583;43.604;1.364;2024-01-15T08:24:52;9.40;99.90
26408;DHT22;14583;43.604;1.364;2024-01-15T08:27:18;9.40;99.90
26408;DHT22;14583;43.604;1.364;2024-01-15T08:29:45;9.40;99.90
26408;DHT22;14583;43.604;1.364;2024-01-15T08:32:11;9.40;99.90
26408;DHT22;14583;43.604;1.364;2024-01-15T08:34:39;9.40;99.90
26408;DHT22;14583;43.604;1.364;2024-01-15T08:37:05;9.40;99.90
26408;DHT22;14583;43.604;1.364;2024-01-15T08:39:31;9.40;99.90
26408;DHT22;14583;43.604;1.364;2024-01-15T08:41:56;9.40;99.90
26408;DHT22;14583;43.604;1.364;2024-01-15T08:44:22;9.50;99.90
26408;DHT22;14583;43.604;1.364;2024-01-15T08:46:48;9.50;99.90
26408;DHT22;14583;43.604;1.364;2024-01-15T08:49:13;9.50;99.90
26408;DHT22;14583;43.604;1.364;2024-01-15T08:51:39;9.60;99.90
26408;DHT22;14583;43.604;1.364;2024-01-15T08:54:05;9.60;99.90
26408;DHT22;14583;43.604;1.364;2024-01-15T08:56:31;9.60;99.90
26408;DHT22;14583;43.604;1.364;2024-01-15T08:58:57;9.60;99.90
26408;DHT22;14583;43.604;1.364;2024-01-15T09:01:23;9.60;99.90
26408;DHT22;14583;43.604;1.364;2024-01-15T09:03:51;9.70;99.90
26408;DHT22;14583;43.604;1.364;2024-01-15T09:06:20;9.70;99.90
26408;DHT22;14583;43.604;1.364;2024-01-15T09:08:46;9.70;99.90
26408;DHT22;14583;43.604;1.364;2024-01-15T09:11:12;9.70;99.90
26408;DHT22;14583;43.604;1.364;2024-01-15T09:13:37;9.80;99.90
26408;DHT22;14583;43.604;1.364;2024-01-15T09:16:04;9.80;99.90
26408;DHT22;14583;43.604;1.364;2024-01-15T09:18:29;9.80;99.90
26408;DHT22;14583;43.604;1.364;2024-01-15T09:20:55;9.90;99.90
26408;DHT22;14583;43.604;1.364;2024-01-15T09:23:21;9.90;99.90
26408;DHT22;14583;43.604;1.364;2024-01-15T09:25:47;9.90;99.90
26408;DHT22;14583;43.604;1.364;2024-01-15T09:28:14;9.90;99.90
26408;DHT22;14583;43.604;1.364;2024-01-15T09:30:39;9.90;99.90
26408;DHT22;14583;43.604;1.364;2024-01-15T09:33:05;9.90;99.90
26408;DHT22;14583;43.604;1.364;2024-01-15T09:35:31;10.00;99.90
26408;DHT22;14583;43.604;1.364;2024-01-15T09:37:57;10.00;99.90
26408;DHT22;14583;43.604;1.364;2024-01-15T09:40:23;10.00;99.90
26408;DHT22;14583;43.604;1.364;2024-01-15T09:42:50;10.10;99.90
26408;DHT22;14583;43.604;1.364;2024-01-15T09:45:17;10.10;99.90
26408;DHT22;14583;43.604;1.364;2024-01-15T09:47:43;10.10;99.90
26408;DHT22;14583;43.604;1.364;2024-01-15T09:50:09;10.10;99.90
26408;DHT22;14583;43.604;1.364;2024-01-15T09:52:35;10.20;99.90
26408;DHT22;14583;43.604;1.364;2024-01-15T09:55:02;10.20;99.90
26408;DHT22;14583;43.604;1.364;2024-01-15T09:57:29;10.20;99.90
26408;DHT22;14583;43.604;1.364;2024-01-15T09:59:55;10.30;99.90
26408;DHT22;14583;43.604;1.364;2024-01-15T10:02:22;10.30;99.90
26408;DHT22;14583;43.604;1.364;2024-01-15T10:04:48;10.20;99.90
26408;DHT22;14583;43.604;1.364;2024-01-15T10:07:16;10.30;99.90
26408;DHT22;14583;43.604;1.364;2024-01-15T10:09:45;10.30;99.90
26408;DHT22;14583;43.604;1.364;2024-01-15T10:12:12;10.30;99.90
26408;DHT22;14583;43.604;1.364;2024-01-15T10:14:37;10.40;99.90
26408;DHT22;14583;43.604;1.364;2024-01-15T10:17:15;10.40;99.90
26408;DHT22;14583;43.604;1.364;2024-01-15T10:19:41;10.40;99.90
26408;DHT22;14583;43.604;1.364;2024-01-15T10:22:08;10.40;99.90
26408;DHT22;14583;43.604;1.364;2024-01-15T10:24:36;10.50;99.90
26408;DHT22;14583;43.604;1.364;2024-01-15T10:27:07;10.40;99.90
26408;DHT22;14583;43.604;1.364;2024-01-15T10:29:33;10.40;99.90
26408;DHT22;14583;43.604;1.364;2024-01-15T10:31:59;10.40;99.90
26408;DHT22;14583;43.604;1.364;2024-01-15T10:34:25;10.40;99.90
26408;DHT22;14583;43.604;1.364;2024-01-15T10:36:50;10.40;99.90
26408;DHT22;14583;43.604;1.364;2024-01-15T10:39:24;10.40;99.90
26408;DHT22;14583;43.604;1.364;2024-01-15T10:41:50;10.40;99.90
26408;DHT22;14583;43.604;1.364;2024-01-15T10:44:17;10.40;99.90
26408;DHT22;14583;43.604;1.364;2024-01-15T10:46:43;10.40;99.90
26408;DHT22;14583;43.604;1.364;2024-01-15T10:49:11;10.40;99.90
26408;DHT22;14583;43.604;1.364;2024-01-15T10:51:38;10.40;99.90
26408;DHT22;14583;43.604;1.364;2024-01-15T10:54:04;10.50;99.90
26408;DHT22;14583;43.604;1.364;2024-01-15T10:56:32;10.50;99.90
26408;DHT22;14583;43.604;1.364;2024-01-15T10:59:00;10.50;99.90
26408;DHT22;14583;43.604;1.364;2024-01-15T11:01:26;10.60;99.90
26408;DHT22;14583;43.604;1.364;2024-01-15T11:03:54;10.60;99.90
26408;DHT22;14583;43.604;1.364;2024-01-15T11:06:24;10.60;99.90
26408;DHT22;14583;43.604;1.364;2024-01-15T11:08:51;10.60;99.90
26408;DHT22;14583;43.604;1.364;2024-01-15T11:11:17;10.60;99.90
26408;DHT22;14583;43.604;1.364;2024-01-15T11:13:46;10.60;99.90
26408;DHT22;14583;43.604;1.364;2024-01-15T11:16:13;10.60;99.90
26408;DHT22;14583;43.604;1.364;2024-01-15T11:19:00;10.60;99.90
26408;DHT22;14583;43.604;1.364;2024-01-15T11:21:27;10.60;99.90
26408;DHT22;14583;43.604;1.364;2024-01-15T11:24:01;10.70;99.90
26408;DHT22;14583;43.604;1.364;2024-01-15T11:26:35;10.70;99.90
26408;DHT22;14583;43.604;1.364;2024-01-15T11:29:03;10.70;99.90
26408;DHT22;14583;43.604;1.364;2024-01-15T11:31:30;10.70;99.90
26408;DHT22;14583;43.604;1.364;2024-01-15T11:34:15;10.80;99.90
26408;DHT22;14583;43.604;1.364;2024-01-15T11:42:02;10.80;99.90
26408;DHT22;14583;43.604;1.364;2024-01-15T11:44:31;10.80;99.90
26408;DHT22;14583;43.604;1.364;2024-01-15T11:47:02;10.80;99.90
26408;DHT22;14583;43.604;1.364;2024-01-15T11:51:57;10.80;99.90
26408;DHT22;14583;43.604;1.364;2024-01-15T11:54:24;10.70;99.90
26408;DHT22;14583;43.604;1.364;2024-01-15T11:56:51;10.70;99.90
26408;DHT22;14583;43.604;1.364;2024-01-15T11:59:17;10.70;99.90
26408;DHT22;14583;43.604;1.364;2024-01-15T12:01:43;10.70;99.90
26408;DHT22;14583;43.604;1.364;2024-01-15T12:04:09;10.70;99.90
26408;DHT22;14583;43.604;1.364;2024-01-15T12:06:35;10.70;99.90
26408;DHT22;14583;43.604;1.364;2024-01-15T12:09:07;10.70;99.90
26408;DHT22;14583;43.604;1.364;2024-01-15T12:11:34;10.70;99.90
26408;DHT22;14583;43.604;1.364;2024-01-15T12:14:01;10.70;99.90
26408;DHT22;14583;43.604;1.364;2024-01-15T12:16:27;10.80;99.90
26408;DHT22;14583;43.604;1.364;2024-01-15T12:18:53;10.80;99.90
26408;DHT22;14583;43.604;1.364;2024-01-15T12:21:19;10.80;99.90
26408;DHT22;14583;43.604;1.364;2024-01-15T12:23:48;10.80;99.90
26408;DHT22;14583;43.604;1.364;2024-01-15T12:26:14;10.80;99.90
26408;DHT22;14583;43.604;1.364;2024-01-15T12:28:46;10.80;99.90
26408;DHT22;14583;43.604;1.364;2024-01-15T12:31:16;10.80;99.90
26408;DHT22;14583;43.604;1.364;2024-01-15T12:33:42;10.80;99.90
26408;DHT22;14583;43.604;1.364;2024-01-15T12:36:08;10.80;99.90
26408;DHT22;14583;43.604;1.364;2024-01-15T12:38:34;10.80;99.90
26408;DHT22;14583;43.604;1.364;2024-01-15T12:41:00;10.80;99.90
26408;DHT22;14583;43.604;1.364;2024-01-15T12:43:26;10.80;99.90
26408;DHT22;14583;43.604;1.364;2024-01-15T12:45:53;10.80;99.90
26408;DHT22;14583;43.604;1.364;2024-01-15T12:48:19;10.80;99.90
26408;DHT22;14583;43.604;1.364;2024-01-15T12:50:44;10.80;99.90
26408;DHT22;14583;43.604;1.364;2024-01-15T12:53:11;10.90;99.90
26408;DHT22;14583;43.604;1.364;2024-01-15T12:55:36;10.90;99.90
26408;DHT22;14583;43.604;1.364;2024-01-15T12:58:02;10.90;99.90
26408;DHT22;14583;43.604;1.364;2024-01-15T13:00:28;10.90;99.90
26408;DHT22;14583;43.604;1.364;2024-01-15T13:02:54;10.90;99.90
26408;DHT22;14583;43.604;1.364;2024-01-15T13:05:20;10.90;99.90
26408;DHT22;14583;43.604;1.364;2024-01-15T13:07:46;10.90;99.90
26408;DHT22;14583;43.604;1.364;2024-01-15T13:10:12;10.90;99.90
26408;DHT22;14583;43.604;1.364;2024-01-15T13:12:38;11.00;99.90
26408;DHT22;14583;43.604;1.364;2024-01-15T13:15:04;11.00;99.90
26408;DHT22;14583;43.604;1.364;2024-01-15T13:17:30;11.00;99.90
26408;DHT22;14583;43.604;1.364;2024-01-15T13:19:56;11.10;99.90
26408;DHT22;14583;43.604;1.364;2024-01-15T13:22:21;11.10;99.90
26408;DHT22;14583;43.604;1.364;2024-01-15T13:24:47;11.10;99.90
26408;DHT22;14583;43.604;1.364;2024-01-15T13:27:13;11.10;99.90
26408;DHT22;14583;43.604;1.364;2024-01-15T13:29:39;11.10;99.90
26408;DHT22;14583;43.604;1.364;2024-01-15T13:32:05;11.10;99.90
26408;DHT22;14583;43.604;1.364;2024-01-15T13:34:31;11.20;99.90
26408;DHT22;14583;43.604;1.364;2024-01-15T13:36:56;11.20;99.90
26408;DHT22;14583;43.604;1.364;2024-01-15T13:39:22;11.20;99.90
26408;DHT22;14583;43.604;1.364;2024-01-15T13:41:49;11.20;99.90
26408;DHT22;14583;43.604;1.364;2024-01-15T13:44:15;11.20;99.90
26408;DHT22;14583;43.604;1.364;2024-01-15T13:46:41;11.20;99.90
26408;DHT22;14583;43.604;1.364;2024-01-15T13:49:07;11.20;99.90
26408;DHT22;14583;43.604;1.364;2024-01-15T13:51:35;11.20;99.90
26408;DHT22;14583;43.604;1.364;2024-01-15T13:54:01;11.20;99.90
26408;DHT22;14583;43.604;1.364;2024-01-15T13:56:26;11.20;99.90
26408;DHT22;14583;43.604;1.364;2024-01-15T13:58:56;11.20;99.90
26408;DHT22;14583;43.604;1.364;2024-01-15T14:01:23;11.30;99.90
26408;DHT22;14583;43.604;1.364;2024-01-15T14:03:49;11.30;99.90
26408;DHT22;14583;43.604;1.364;2024-01-15T14:06:15;11.30;99.90
26408;DHT22;14583;43.604;1.364;2024-01-15T14:08:40;11.30;99.90
26408;DHT22;14583;43.604;1.364;2024-01-15T14:11:06;11.20;99.90
26408;DHT22;14583;43.604;1.364;2024-01-15T14:13:33;11.20;99.90
26408;DHT22;14583;43.604;1.364;2024-01-15T14:15:58;11.20;99.90
26408;DHT22;14583;43.604;1.364;2024-01-15T14:18:26;11.30;99.90
26408;DHT22;14583;43.604;1.364;2024-01-15T14:20:51;11.30;99.90
26408;DHT22;14583;43.604;1.364;2024-01-15T14:23:19;11.30;99.90
26408;DHT22;14583;43.604;1.364;2024-01-15T14:25:45;11.30;99.90
26408;DHT22;14583;43.604;1.364;2024-01-15T14:28:10;11.30;99.90
26408;DHT22;14583;43.604;1.364;2024-01-15T14:30:36;11.30;99.90
26408;DHT22;14583;43.604;1.364;2024-01-15T14:33:02;11.40;99.90
26408;DHT22;14583;43.604;1.364;2024-01-15T14:35:28;11.40;99.90
26408;DHT22;14583;43.604;1.364;2024-01-15T14:37:54;11.40;99.90
26408;DHT22;14583;43.604;1.364;2024-01-15T14:40:19;11.40;99.90
26408;DHT22;14583;43.604;1.364;2024-01-15T14:42:45;11.40;99.90
26408;DHT22;14583;43.604;1.364;2024-01-15T14:45:11;11.40;99.90
26408;DHT22;14583;43.604;1.364;2024-01-15T14:47:40;11.40;99.90
26408;DHT22;14583;43.604;1.364;2024-01-15T14:50:07;11.40;99.90
26408;DHT22;14583;43.604;1.364;2024-01-15T14:52:34;11.40;99.90
26408;DHT22;14583;43.604;1.364;2024-01-15T14:55:00;11.40;99.90
26408;DHT22;14583;43.604;1.364;2024-01-15T14:57:26;11.40;99.90
26408;DHT22;14583;43.604;1.364;2024-01-15T14:59:51;11.40;99.90
26408;DHT22;14583;43.604;1.364;2024-01-15T15:02:18;11.40;99.90
26408;DHT22;14583;43.604;1.364;2024-01-15T15:04:43;11.40;99.90
26408;DHT22;14583;43.604;1.364;2024-01-15T15:07:09;11.50;99.90
26408;DHT22;14583;43.604;1.364;2024-01-15T15:09:36;11.40;99.90
26408;DHT22;14583;43.604;1.364;2024-01-15T15:12:03;11.40;99.90
26408;DHT22;14583;43.604;1.364;2024-01-15T15:14:30;11.40;99.90
26408;DHT22;14583;43.604;1.364;2024-01-15T15:16:57;11.40;99.90
26408;DHT22;14583;43.604;1.364;2024-01-15T15:19:23;11.40;99.90
26408;DHT22;14583;43.604;1.364;2024-01-15T15:21:49;11.40;99.90
26408;DHT22;14583;43.604;1.364;2024-01-15T15:24:15;11.40;99.90
26408;DHT22;14583;43.604;1.364;2024-01-15T15:26:41;11.40;99.90
26408;DHT22;14583;43.604;1.364;2024-01-15T15:29:06;11.40;99.90
26408;DHT22;14583;43.604;1.364;2024-01-15T15:31:32;11.40;99.90
26408;DHT22;14583;43.604;1.364;2024-01-15T15:33:58;11.40;99.90
26408;DHT22;14583;43.604;1.364;2024-01-15T15:36:23;11.40;99.90
26408;DHT22;14583;43.604;1.364;2024-01-15T15:38:49;11.40;99.90
26408;DHT22;14583;43.604;1.364;2024-01-15T15:41:15;11.40;99.90